sensor_id;sensor_type;location;lat;lon;timestamp;P1;durP1;ratioP1;P2;durP2;ratioP2
23306;SDS011;11822;52.470;10.688;2022-07-23T00:01:27;9.55;;;5.88;;
23306;SDS011;11822;52.470;10.688;2022-07-23T00:03:53;7.82;;;5.63;;
23306;SDS011;11822;52.470;10.688;2022-07-23T00:06:20;7.80;;;5.75;;
23306;SDS011;11822;52.470;10.688;2022-07-23T00:08:46;8.13;;;6.03;;
23306;SDS011;11822;52.470;10.688;2022-07-23T00:11:11;9.60;;;5.43;;
23306;SDS011;11822;52.470;10.688;2022-07-23T00:13:36;8.75;;;5.50;;
23306;SDS011;11822;52.470;10.688;2022-07-23T00:16:02;7.47;;;5.70;;
23306;SDS011;11822;52.470;10.688;2022-07-23T00:18:27;7.30;;;5.93;;
23306;SDS011;11822;52.470;10.688;2022-07-23T00:20:53;8.18;;;5.80;;
23306;SDS011;11822;52.470;10.688;2022-07-23T00:23:18;6.97;;;5.70;;
23306;SDS011;11822;52.470;10.688;2022-07-23T00:25:44;6.82;;;5.40;;
23306;SDS011;11822;52.470;10.688;2022-07-23T00:28:10;6.65;;;5.57;;
23306;SDS011;11822;52.470;10.688;2022-07-23T00:30:36;7.45;;;6.13;;
23306;SDS011;11822;52.470;10.688;2022-07-23T00:33:03;8.02;;;5.90;;
23306;SDS011;11822;52.470;10.688;2022-07-23T00:35:31;8.32;;;6.15;;
23306;SDS011;11822;52.470;10.688;2022-07-23T00:38:02;10.98;;;6.53;;
23306;SDS011;11822;52.470;10.688;2022-07-23T00:40:29;11.90;;;7.30;;
23306;SDS011;11822;52.470;10.688;2022-07-23T00:42:55;10.15;;;7.15;;
23306;SDS011;11822;52.470;10.688;2022-07-23T00:45:21;10.45;;;7.25;;
23306;SDS011;11822;52.470;10.688;2022-07-23T00:47:47;10.23;;;6.30;;
23306;SDS011;11822;52.470;10.688;2022-07-23T00:50:13;7.68;;;6.53;;
23306;SDS011;11822;52.470;10.688;2022-07-23T00:52:39;8.25;;;6.50;;
23306;SDS011;11822;52.470;10.688;2022-07-23T00:55:05;7.15;;;6.30;;
23306;SDS011;11822;52.470;10.688;2022-07-23T00:57:32;10.52;;;6.78;;
23306;SDS011;11822;52.470;10.688;2022-07-23T00:59:58;12.45;;;7.10;;
23306;SDS011;11822;52.470;10.688;2022-07-23T01:02:24;8.00;;;6.63;;
23306;SDS011;11822;52.470;10.688;2022-07-23T01:04:50;13.02;;;7.43;;
23306;SDS011;11822;52.470;10.688;2022-07-23T01:07:15;12.40;;;7.20;;
23306;SDS011;11822;52.470;10.688;2022-07-23T01:09:42;11.38;;;6.70;;
23306;SDS011;11822;52.470;10.688;2022-07-23T01:12:09;9.10;;;6.93;;
23306;SDS011;11822;52.470;10.688;2022-07-23T01:14:34;9.50;;;6.97;;
23306;SDS011;11822;52.470;10.688;2022-07-23T01:16:59;11.70;;;7.18;;
23306;SDS011;11822;52.470;10.688;2022-07-23T01:19:25;8.80;;;7.15;;
23306;SDS011;11822;52.470;10.688;2022-07-23T01:21:50;8.30;;;6.90;;
23306;SDS011;11822;52.470;10.688;2022-07-23T01:24:18;9.80;;;7.45;;
23306;SDS011;11822;52.470;10.688;2022-07-23T01:26:45;8.00;;;7.20;;
23306;SDS011;11822;52.470;10.688;2022-07-23T01:29:11;8.82;;;7.78;;
23306;SDS011;11822;52.470;10.688;2022-07-23T01:31:37;9.50;;;7.40;;
23306;SDS011;11822;52.470;10.688;2022-07-23T01:34:02;9.48;;;6.80;;
23306;SDS011;11822;52.470;10.688;2022-07-23T01:36:29;9.57;;;6.97;;
23306;SDS011;11822;52.470;10.688;2022-07-23T01:38:55;9.30;;;6.75;;
23306;SDS011;11822;52.470;10.688;2022-07-23T01:41:20;9.10;;;6.18;;
23306;SDS011;11822;52.470;10.688;2022-07-23T01:43:46;8.55;;;6.53;;
23306;SDS011;11822;52.470;10.688;2022-07-23T01:46:12;8.25;;;6.38;;
23306;SDS011;11822;52.470;10.688;2022-07-23T01:48:37;7.28;;;6.18;;
23306;SDS011;11822;52.470;10.688;2022-07-23T01:51:03;7.55;;;5.60;;
23306;SDS011;11822;52.470;10.688;2022-07-23T01:53:28;8.18;;;6.95;;
23306;SDS011;11822;52.470;10.688;2022-07-23T01:55:56;9.30;;;6.68;;
23306;SDS011;11822;52.470;10.688;2022-07-23T01:58:22;9.40;;;6.95;;
23306;SDS011;11822;52.470;10.688;2022-07-23T02:00:47;8.15;;;6.10;;
23306;SDS011;11822;52.470;10.688;2022-07-23T02:03:13;7.50;;;6.40;;
23306;SDS011;11822;52.470;10.688;2022-07-23T02:05:38;6.72;;;6.13;;
23306;SDS011;11822;52.470;10.688;2022-07-23T02:08:04;8.73;;;6.50;;
23306;SDS011;11822;52.470;10.688;2022-07-23T02:10:30;9.27;;;6.40;;
23306;SDS011;11822;52.470;10.688;2022-07-23T02:12:55;9.63;;;7.18;;
23306;SDS011;11822;52.470;10.688;2022-07-23T02:15:20;9.57;;;6.75;;
23306;SDS011;11822;52.470;10.688;2022-07-23T02:17:46;10.18;;;7.20;;
23306;SDS011;11822;52.470;10.688;2022-07-23T02:20:11;10.18;;;6.85;;
23306;SDS011;11822;52.470;10.688;2022-07-23T02:22:37;9.93;;;6.63;;
23306;SDS011;11822;52.470;10.688;2022-07-23T02:25:03;9.30;;;6.60;;
23306;SDS011;11822;52.470;10.688;2022-07-23T02:27:29;8.45;;;6.82;;
23306;SDS011;11822;52.470;10.688;2022-07-23T02:29:55;9.75;;;7.20;;
23306;SDS011;11822;52.470;10.688;2022-07-23T02:32:20;7.95;;;6.60;;
23306;SDS011;11822;52.470;10.688;2022-07-23T02:34:48;8.07;;;6.50;;
23306;SDS011;11822;52.470;10.688;2022-07-23T02:37:14;9.70;;;6.22;;
23306;SDS011;11822;52.470;10.688;2022-07-23T02:39:39;12.32;;;7.45;;
23306;SDS011;11822;52.470;10.688;2022-07-23T02:42:05;9.73;;;7.57;;
23306;SDS011;11822;52.470;10.688;2022-07-23T02:44:30;10.43;;;7.07;;
23306;SDS011;11822;52.470;10.688;2022-07-23T02:46:56;9.95;;;7.43;;
23306;SDS011;11822;52.470;10.688;2022-07-23T02:49:21;7.38;;;6.68;;
23306;SDS011;11822;52.470;10.688;2022-07-23T02:51:47;10.52;;;6.90;;
23306;SDS011;11822;52.470;10.688;2022-07-23T02:54:12;7.85;;;7.15;;
23306;SDS011;11822;52.470;10.688;2022-07-23T02:56:38;9.65;;;7.53;;
23306;SDS011;11822;52.470;10.688;2022-07-23T02:59:03;12.15;;;7.57;;
23306;SDS011;11822;52.470;10.688;2022-07-23T03:01:28;9.82;;;8.10;;
23306;SDS011;11822;52.470;10.688;2022-07-23T03:03:54;11.25;;;7.40;;
23306;SDS011;11822;52.470;10.688;2022-07-23T03:06:19;8.10;;;6.82;;
23306;SDS011;11822;52.470;10.688;2022-07-23T03:08:44;8.68;;;6.70;;
23306;SDS011;11822;52.470;10.688;2022-07-23T03:11:10;10.77;;;7.68;;
23306;SDS011;11822;52.470;10.688;2022-07-23T03:13:38;9.20;;;6.45;;
23306;SDS011;11822;52.470;10.688;2022-07-23T03:16:05;9.27;;;7.68;;
23306;SDS011;11822;52.470;10.688;2022-07-23T03:18:31;7.97;;;7.18;;
23306;SDS011;11822;52.470;10.688;2022-07-23T03:20:56;10.52;;;8.10;;
23306;SDS011;11822;52.470;10.688;2022-07-23T03:23:21;11.57;;;8.05;;
23306;SDS011;11822;52.470;10.688;2022-07-23T03:25:47;13.75;;;9.10;;
23306;SDS011;11822;52.470;10.688;2022-07-23T03:28:13;10.88;;;9.60;;
23306;SDS011;11822;52.470;10.688;2022-07-23T03:30:43;10.32;;;8.70;;
23306;SDS011;11822;52.470;10.688;2022-07-23T03:33:11;13.13;;;9.32;;
23306;SDS011;11822;52.470;10.688;2022-07-23T03:35:37;11.35;;;9.70;;
23306;SDS011;11822;52.470;10.688;2022-07-23T03:38:02;13.05;;;9.95;;
23306;SDS011;11822;52.470;10.688;2022-07-23T03:40:28;12.73;;;10.18;;
23306;SDS011;11822;52.470;10.688;2022-07-23T03:42:53;13.35;;;9.73;;
23306;SDS011;11822;52.470;10.688;2022-07-23T03:45:18;10.50;;;9.35;;
23306;SDS011;11822;52.470;10.688;2022-07-23T03:47:44;10.77;;;9.55;;
23306;SDS011;11822;52.470;10.688;2022-07-23T03:50:09;14.07;;;10.48;;
23306;SDS011;11822;52.470;10.688;2022-07-23T03:52:35;18.42;;;11.05;;
23306;SDS011;11822;52.470;10.688;2022-07-23T03:55:01;12.55;;;10.70;;
23306;SDS011;11822;52.470;10.688;2022-07-23T03:57:27;14.88;;;9.50;;
23306;SDS011;11822;52.470;10.688;2022-07-23T03:59:52;10.73;;;9.35;;
23306;SDS011;11822;52.470;10.688;2022-07-23T04:02:17;11.60;;;8.90;;
23306;SDS011;11822;52.470;10.688;2022-07-23T04:04:43;12.60;;;9.10;;
23306;SDS011;11822;52.470;10.688;2022-07-23T04:07:08;12.20;;;9.63;;
23306;SDS011;11822;52.470;10.688;2022-07-23T04:09:33;15.43;;;9.73;;
23306;SDS011;11822;52.470;10.688;2022-07-23T04:11:59;13.38;;;9.18;;
23306;SDS011;11822;52.470;10.688;2022-07-23T04:14:25;18.65;;;9.40;;
23306;SDS011;11822;52.470;10.688;2022-07-23T04:16:50;15.77;;;9.27;;
23306;SDS011;11822;52.470;10.688;2022-07-23T04:19:15;13.88;;;10.02;;
23306;SDS011;11822;52.470;10.688;2022-07-23T04:21:41;14.77;;;8.98;;
23306;SDS011;11822;52.470;10.688;2022-07-23T04:24:06;14.68;;;7.70;;
23306;SDS011;11822;52.470;10.688;2022-07-23T04:26:31;12.98;;;7.65;;
23306;SDS011;11822;52.470;10.688;2022-07-23T04:28:57;9.27;;;6.68;;
23306;SDS011;11822;52.470;10.688;2022-07-23T04:31:22;7.72;;;6.93;;
23306;SDS011;11822;52.470;10.688;2022-07-23T04:33:48;9.80;;;7.78;;
23306;SDS011;11822;52.470;10.688;2022-07-23T04:36:13;10.52;;;7.75;;
23306;SDS011;11822;52.470;10.688;2022-07-23T04:38:38;9.10;;;7.65;;
23306;SDS011;11822;52.470;10.688;2022-07-23T04:41:04;10.95;;;8.35;;
23306;SDS011;11822;52.470;10.688;2022-07-23T04:43:29;10.00;;;7.72;;
23306;SDS011;11822;52.470;10.688;2022-07-23T04:45:55;9.77;;;7.45;;
23306;SDS011;11822;52.470;10.688;2022-07-23T04:48:20;11.40;;;9.07;;
23306;SDS011;11822;52.470;10.688;2022-07-23T04:50:46;14.25;;;10.57;;
23306;SDS011;11822;52.470;10.688;2022-07-23T04:53:11;12.43;;;9.73;;
23306;SDS011;11822;52.470;10.688;2022-07-23T04:55:36;12.32;;;9.73;;
23306;SDS011;11822;52.470;10.688;2022-07-23T04:58:02;13.43;;;9.80;;
23306;SDS011;11822;52.470;10.688;2022-07-23T05:00:27;13.82;;;9.80;;
23306;SDS011;11822;52.470;10.688;2022-07-23T05:02:52;12.85;;;10.05;;
23306;SDS011;11822;52.470;10.688;2022-07-23T05:05:18;14.55;;;9.80;;
23306;SDS011;11822;52.470;10.688;2022-07-23T05:07:43;12.27;;;9.65;;
23306;SDS011;11822;52.470;10.688;2022-07-23T05:10:08;15.70;;;10.57;;
23306;SDS011;11822;52.470;10.688;2022-07-23T05:12:34;12.48;;;9.77;;
23306;SDS011;11822;52.470;10.688;2022-07-23T05:14:59;13.82;;;10.18;;
23306;SDS011;11822;52.470;10.688;2022-07-23T05:17:25;13.70;;;9.98;;
23306;SDS011;11822;52.470;10.688;2022-07-23T05:19:50;12.43;;;10.00;;
23306;SDS011;11822;52.470;10.688;2022-07-23T05:22:15;11.13;;;8.93;;
23306;SDS011;11822;52.470;10.688;2022-07-23T05:24:41;14.15;;;10.68;;
23306;SDS011;11822;52.470;10.688;2022-07-23T05:27:07;15.70;;;10.10;;
23306;SDS011;11822;52.470;10.688;2022-07-23T05:29:33;14.98;;;10.27;;
23306;SDS011;11822;52.470;10.688;2022-07-23T05:31:58;11.38;;;8.90;;
23306;SDS011;11822;52.470;10.688;2022-07-23T05:34:24;16.23;;;10.10;;
23306;SDS011;11822;52.470;10.688;2022-07-23T05:36:49;10.82;;;8.90;;
23306;SDS011;11822;52.470;10.688;2022-07-23T05:39:15;12.18;;;9.68;;
23306;SDS011;11822;52.470;10.688;2022-07-23T05:41:40;13.15;;;10.10;;
23306;SDS011;11822;52.470;10.688;2022-07-23T05:44:05;13.23;;;11.38;;
23306;SDS011;11822;52.470;10.688;2022-07-23T05:46:31;16.08;;;10.52;;
23306;SDS011;11822;52.470;10.688;2022-07-23T05:48:56;15.15;;;9.82;;
23306;SDS011;11822;52.470;10.688;2022-07-23T05:51:22;14.40;;;10.07;;
23306;SDS011;11822;52.470;10.688;2022-07-23T05:53:49;12.43;;;10.43;;
23306;SDS011;11822;52.470;10.688;2022-07-23T05:56:15;13.73;;;10.23;;
23306;SDS011;11822;52.470;10.688;2022-07-23T05:58:41;19.65;;;11.13;;
23306;SDS011;11822;52.470;10.688;2022-07-23T06:01:07;12.98;;;9.52;;
23306;SDS011;11822;52.470;10.688;2022-07-23T06:03:32;15.02;;;9.43;;
23306;SDS011;11822;52.470;10.688;2022-07-23T06:05:57;11.90;;;9.30;;
23306;SDS011;11822;52.470;10.688;2022-07-23T06:08:23;13.20;;;9.30;;
23306;SDS011;11822;52.470;10.688;2022-07-23T06:10:48;10.68;;;8.88;;
23306;SDS011;11822;52.470;10.688;2022-07-23T06:13:14;13.75;;;9.70;;
23306;SDS011;11822;52.470;10.688;2022-07-23T06:15:39;16.27;;;8.52;;
23306;SDS011;11822;52.470;10.688;2022-07-23T06:18:04;15.77;;;8.55;;
23306;SDS011;11822;52.470;10.688;2022-07-23T06:20:30;9.70;;;7.78;;
23306;SDS011;11822;52.470;10.688;2022-07-23T06:22:55;11.88;;;7.72;;
23306;SDS011;11822;52.470;10.688;2022-07-23T06:25:20;11.77;;;7.15;;
23306;SDS011;11822;52.470;10.688;2022-07-23T06:27:46;12.90;;;7.95;;
23306;SDS011;11822;52.470;10.688;2022-07-23T06:30:12;9.55;;;7.60;;
23306;SDS011;11822;52.470;10.688;2022-07-23T06:32:38;14.02;;;7.15;;
23306;SDS011;11822;52.470;10.688;2022-07-23T06:35:06;9.68;;;6.60;;
23306;SDS011;11822;52.470;10.688;2022-07-23T06:37:32;11.38;;;6.93;;
23306;SDS011;11822;52.470;10.688;2022-07-23T06:39:57;11.88;;;7.28;;
23306;SDS011;11822;52.470;10.688;2022-07-23T06:42:22;10.55;;;7.25;;
23306;SDS011;11822;52.470;10.688;2022-07-23T06:44:48;10.73;;;7.03;;
23306;SDS011;11822;52.470;10.688;2022-07-23T06:47:13;10.82;;;6.03;;
23306;SDS011;11822;52.470;10.688;2022-07-23T06:49:39;9.80;;;5.20;;
23306;SDS011;11822;52.470;10.688;2022-07-23T06:52:06;11.32;;;5.97;;
23306;SDS011;11822;52.470;10.688;2022-07-23T06:54:32;10.77;;;5.65;;
23306;SDS011;11822;52.470;10.688;2022-07-23T06:56:57;9.15;;;5.63;;
23306;SDS011;11822;52.470;10.688;2022-07-23T06:59:22;11.05;;;5.20;;
23306;SDS011;11822;52.470;10.688;2022-07-23T07:01:48;10.30;;;5.15;;
23306;SDS011;11822;52.470;10.688;2022-07-23T07:04:13;10.05;;;4.70;;
23306;SDS011;11822;52.470;10.688;2022-07-23T07:06:38;10.88;;;4.78;;
23306;SDS011;11822;52.470;10.688;2022-07-23T07:09:04;10.73;;;4.53;;
23306;SDS011;11822;52.470;10.688;2022-07-23T07:11:29;11.63;;;4.22;;
23306;SDS011;11822;52.470;10.688;2022-07-23T07:13:54;8.20;;;3.80;;
23306;SDS011;11822;52.470;10.688;2022-07-23T07:16:20;10.88;;;3.88;;
23306;SDS011;11822;52.470;10.688;2022-07-23T07:18:45;8.98;;;3.33;;
23306;SDS011;11822;52.470;10.688;2022-07-23T07:21:11;10.27;;;3.55;;
23306;SDS011;11822;52.470;10.688;2022-07-23T07:23:36;6.55;;;3.17;;
23306;SDS011;11822;52.470;10.688;2022-07-23T07:26:02;11.55;;;3.30;;
23306;SDS011;11822;52.470;10.688;2022-07-23T07:28:27;7.18;;;3.38;;
23306;SDS011;11822;52.470;10.688;2022-07-23T07:30:53;9.63;;;3.10;;
23306;SDS011;11822;52.470;10.688;2022-07-23T07:33:18;6.32;;;3.20;;
23306;SDS011;11822;52.470;10.688;2022-07-23T07:35:44;9.35;;;3.28;;
23306;SDS011;11822;52.470;10.688;2022-07-23T07:38:09;6.57;;;2.88;;
23306;SDS011;11822;52.470;10.688;2022-07-23T07:40:34;7.32;;;3.30;;
23306;SDS011;11822;52.470;10.688;2022-07-23T07:43:00;9.20;;;3.30;;
23306;SDS011;11822;52.470;10.688;2022-07-23T07:45:26;7.45;;;3.42;;
23306;SDS011;11822;52.470;10.688;2022-07-23T07:47:52;9.65;;;3.33;;
23306;SDS011;11822;52.470;10.688;2022-07-23T07:50:18;6.45;;;3.22;;
23306;SDS011;11822;52.470;10.688;2022-07-23T07:52:44;9.23;;;2.80;;
23306;SDS011;11822;52.470;10.688;2022-07-23T07:55:09;6.40;;;3.35;;
23306;SDS011;11822;52.470;10.688;2022-07-23T07:57:35;7.18;;;3.28;;
23306;SDS011;11822;52.470;10.688;2022-07-23T08:00:02;14.25;;;3.28;;
23306;SDS011;11822;52.470;10.688;2022-07-23T08:02:29;7.85;;;2.65;;
23306;SDS011;11822;52.470;10.688;2022-07-23T08:04:54;5.43;;;2.55;;
23306;SDS011;11822;52.470;10.688;2022-07-23T08:07:22;7.13;;;2.10;;
23306;SDS011;11822;52.470;10.688;2022-07-23T08:09:47;8.23;;;2.50;;
23306;SDS011;11822;52.470;10.688;2022-07-23T08:12:12;8.40;;;2.30;;
23306;SDS011;11822;52.470;10.688;2022-07-23T08:14:38;5.45;;;2.22;;
23306;SDS011;11822;52.470;10.688;2022-07-23T08:17:03;4.68;;;2.05;;
23306;SDS011;11822;52.470;10.688;2022-07-23T08:19:28;4.45;;;2.20;;
23306;SDS011;11822;52.470;10.688;2022-07-23T08:21:54;5.60;;;2.03;;
23306;SDS011;11822;52.470;10.688;2022-07-23T08:24:19;4.43;;;1.90;;
23306;SDS011;11822;52.470;10.688;2022-07-23T08:26:44;5.60;;;2.05;;
23306;SDS011;11822;52.470;10.688;2022-07-23T08:29:10;9.32;;;2.10;;
23306;SDS011;11822;52.470;10.688;2022-07-23T08:31:35;6.35;;;2.13;;
23306;SDS011;11822;52.470;10.688;2022-07-23T08:34:01;4.57;;;1.88;;
23306;SDS011;11822;52.470;10.688;2022-07-23T08:36:27;6.07;;;1.52;;
23306;SDS011;11822;52.470;10.688;2022-07-23T08:38:54;5.07;;;1.70;;
23306;SDS011;11822;52.470;10.688;2022-07-23T08:41:19;5.20;;;1.50;;
23306;SDS011;11822;52.470;10.688;2022-07-23T08:43:45;6.18;;;1.90;;
23306;SDS011;11822;52.470;10.688;2022-07-23T08:46:10;4.85;;;1.60;;
23306;SDS011;11822;52.470;10.688;2022-07-23T08:48:38;5.05;;;1.60;;
23306;SDS011;11822;52.470;10.688;2022-07-23T08:51:04;3.05;;;1.50;;
23306;SDS011;11822;52.470;10.688;2022-07-23T08:53:32;4.45;;;1.83;;
23306;SDS011;11822;52.470;10.688;2022-07-23T08:55:59;3.90;;;1.45;;
23306;SDS011;11822;52.470;10.688;2022-07-23T08:58:29;8.20;;;1.70;;
23306;SDS011;11822;52.470;10.688;2022-07-23T09:00:56;9.23;;;1.52;;
23306;SDS011;11822;52.470;10.688;2022-07-23T09:03:25;4.28;;;1.65;;
23306;SDS011;11822;52.470;10.688;2022-07-23T09:05:52;4.05;;;1.88;;
23306;SDS011;11822;52.470;10.688;2022-07-23T09:08:19;5.40;;;1.67;;
23306;SDS011;11822;52.470;10.688;2022-07-23T09:13:54;6.35;;;1.80;;
23306;SDS011;11822;52.470;10.688;2022-07-23T09:18:44;5.28;;;1.58;;
23306;SDS011;11822;52.470;10.688;2022-07-23T09:21:37;9.40;;;1.90;;
23306;SDS011;11822;52.470;10.688;2022-07-23T09:26:31;5.55;;;1.73;;
23306;SDS011;11822;52.470;10.688;2022-07-23T09:31:25;4.30;;;1.80;;
23306;SDS011;11822;52.470;10.688;2022-07-23T09:34:05;4.30;;;1.55;;
23306;SDS011;11822;52.470;10.688;2022-07-23T09:36:33;2.88;;;0.98;;
23306;SDS011;11822;52.470;10.688;2022-07-23T09:38:58;4.82;;;1.60;;
23306;SDS011;11822;52.470;10.688;2022-07-23T09:41:23;4.75;;;1.10;;
23306;SDS011;11822;52.470;10.688;2022-07-23T09:43:54;5.47;;;1.20;;
23306;SDS011;11822;52.470;10.688;2022-07-23T09:48:46;2.47;;;1.05;;
23306;SDS011;11822;52.470;10.688;2022-07-23T09:51:12;4.65;;;1.42;;
23306;SDS011;11822;52.470;10.688;2022-07-23T09:53:58;4.00;;;1.15;;
23306;SDS011;11822;52.470;10.688;2022-07-23T09:56:23;6.10;;;1.10;;
23306;SDS011;11822;52.470;10.688;2022-07-23T09:58:52;3.28;;;1.13;;
23306;SDS011;11822;52.470;10.688;2022-07-23T10:01:28;3.13;;;1.38;;
23306;SDS011;11822;52.470;10.688;2022-07-23T10:03:54;4.38;;;1.13;;
23306;SDS011;11822;52.470;10.688;2022-07-23T10:06:19;2.47;;;1.10;;
23306;SDS011;11822;52.470;10.688;2022-07-23T10:08:45;3.17;;;1.10;;
23306;SDS011;11822;52.470;10.688;2022-07-23T10:11:13;2.50;;;0.90;;
23306;SDS011;11822;52.470;10.688;2022-07-23T10:13:39;4.60;;;1.13;;
23306;SDS011;11822;52.470;10.688;2022-07-23T10:16:20;3.95;;;1.17;;
23306;SDS011;11822;52.470;10.688;2022-07-23T10:18:47;5.93;;;1.20;;
23306;SDS011;11822;52.470;10.688;2022-07-23T10:21:15;3.60;;;1.00;;
23306;SDS011;11822;52.470;10.688;2022-07-23T10:24:10;2.25;;;0.93;;
23306;SDS011;11822;52.470;10.688;2022-07-23T10:37:47;3.60;;;1.13;;
23306;SDS011;11822;52.470;10.688;2022-07-23T10:40:20;2.25;;;1.15;;
23306;SDS011;11822;52.470;10.688;2022-07-23T10:42:48;5.72;;;1.20;;
23306;SDS011;11822;52.470;10.688;2022-07-23T10:45:35;3.22;;;0.90;;
23306;SDS011;11822;52.470;10.688;2022-07-23T10:48:11;3.35;;;1.17;;
23306;SDS011;11822;52.470;10.688;2022-07-23T10:50:37;5.07;;;1.40;;
23306;SDS011;11822;52.470;10.688;2022-07-23T10:57:57;4.85;;;1.30;;
23306;SDS011;11822;52.470;10.688;2022-07-23T11:00:26;2.42;;;1.20;;
23306;SDS011;11822;52.470;10.688;2022-07-23T11:02:57;3.67;;;1.40;;
23306;SDS011;11822;52.470;10.688;2022-07-23T11:05:39;1.80;;;1.30;;
23306;SDS011;11822;52.470;10.688;2022-07-23T11:34:34;2.65;;;1.20;;
23306;SDS011;11822;52.470;10.688;2022-07-23T11:37:03;2.10;;;1.00;;
23306;SDS011;11822;52.470;10.688;2022-07-23T11:39:30;2.13;;;1.05;;
23306;SDS011;11822;52.470;10.688;2022-07-23T11:41:57;3.10;;;1.23;;
23306;SDS011;11822;52.470;10.688;2022-07-23T11:44:23;6.00;;;1.42;;
23306;SDS011;11822;52.470;10.688;2022-07-23T11:46:56;1.33;;;0.90;;
23306;SDS011;11822;52.470;10.688;2022-07-23T11:49:23;3.97;;;1.00;;
23306;SDS011;11822;52.470;10.688;2022-07-23T11:52:09;4.43;;;1.00;;
23306;SDS011;11822;52.470;10.688;2022-07-23T11:54:58;3.30;;;1.00;;
23306;SDS011;11822;52.470;10.688;2022-07-23T11:57:24;5.68;;;1.20;;
23306;SDS011;11822;52.470;10.688;2022-07-23T11:59:56;5.13;;;0.98;;
23306;SDS011;11822;52.470;10.688;2022-07-23T12:02:23;5.10;;;0.93;;
23306;SDS011;11822;52.470;10.688;2022-07-23T12:04:50;2.78;;;0.95;;
23306;SDS011;11822;52.470;10.688;2022-07-23T12:07:33;5.30;;;1.10;;
23306;SDS011;11822;52.470;10.688;2022-07-23T12:10:01;4.30;;;1.15;;
23306;SDS011;11822;52.470;10.688;2022-07-23T12:12:38;4.93;;;1.00;;
23306;SDS011;11822;52.470;10.688;2022-07-23T12:15:07;2.72;;;0.90;;
23306;SDS011;11822;52.470;10.688;2022-07-23T12:17:34;3.28;;;0.90;;
23306;SDS011;11822;52.470;10.688;2022-07-23T12:20:06;1.85;;;0.90;;
23306;SDS011;11822;52.470;10.688;2022-07-23T12:22:35;2.47;;;0.85;;
23306;SDS011;11822;52.470;10.688;2022-07-23T12:25:06;6.68;;;0.90;;
23306;SDS011;11822;52.470;10.688;2022-07-23T12:27:37;1.88;;;0.80;;
23306;SDS011;11822;52.470;10.688;2022-07-23T12:35:13;3.17;;;0.90;;
23306;SDS011;11822;52.470;10.688;2022-07-23T12:37:40;2.30;;;0.82;;
23306;SDS011;11822;52.470;10.688;2022-07-23T12:42:58;4.15;;;0.80;;
23306;SDS011;11822;52.470;10.688;2022-07-23T12:45:25;1.85;;;0.80;;
23306;SDS011;11822;52.470;10.688;2022-07-23T12:50:37;4.35;;;0.93;;
23306;SDS011;11822;52.470;10.688;2022-07-23T12:53:20;3.33;;;0.90;;
23306;SDS011;11822;52.470;10.688;2022-07-23T12:55:49;2.42;;;0.75;;
23306;SDS011;11822;52.470;10.688;2022-07-23T12:58:16;2.88;;;0.60;;
23306;SDS011;11822;52.470;10.688;2022-07-23T13:03:28;7.68;;;0.80;;
23306;SDS011;11822;52.470;10.688;2022-07-23T13:05:54;3.15;;;0.70;;
23306;SDS011;11822;52.470;10.688;2022-07-23T13:08:20;5.65;;;0.90;;
23306;SDS011;11822;52.470;10.688;2022-07-23T13:10:46;3.10;;;0.90;;
23306;SDS011;11822;52.470;10.688;2022-07-23T13:13:13;8.02;;;0.82;;
23306;SDS011;11822;52.470;10.688;2022-07-23T13:15:39;2.78;;;0.80;;
23306;SDS011;11822;52.470;10.688;2022-07-23T13:18:04;3.33;;;0.73;;
23306;SDS011;11822;52.470;10.688;2022-07-23T13:20:30;2.67;;;0.75;;
23306;SDS011;11822;52.470;10.688;2022-07-23T13:22:57;4.00;;;0.80;;
23306;SDS011;11822;52.470;10.688;2022-07-23T13:25:23;3.90;;;0.57;;
23306;SDS011;11822;52.470;10.688;2022-07-23T13:27:48;1.25;;;0.57;;
23306;SDS011;11822;52.470;10.688;2022-07-23T13:30:13;2.85;;;0.60;;
23306;SDS011;11822;52.470;10.688;2022-07-23T13:32:40;5.28;;;0.70;;
23306;SDS011;11822;52.470;10.688;2022-07-23T13:35:05;1.00;;;0.60;;
23306;SDS011;11822;52.470;10.688;2022-07-23T13:37:31;1.88;;;0.70;;
23306;SDS011;11822;52.470;10.688;2022-07-23T13:39:56;1.75;;;0.60;;
23306;SDS011;11822;52.470;10.688;2022-07-23T13:42:22;2.45;;;0.60;;
23306;SDS011;11822;52.470;10.688;2022-07-23T13:44:47;2.00;;;0.60;;
23306;SDS011;11822;52.470;10.688;2022-07-23T13:47:12;3.13;;;0.68;;
23306;SDS011;11822;52.470;10.688;2022-07-23T13:49:38;1.00;;;0.50;;
23306;SDS011;11822;52.470;10.688;2022-07-23T13:52:03;2.95;;;0.60;;
23306;SDS011;11822;52.470;10.688;2022-07-23T13:54:29;3.63;;;0.60;;
23306;SDS011;11822;52.470;10.688;2022-07-23T13:56:55;3.40;;;0.60;;
23306;SDS011;11822;52.470;10.688;2022-07-23T13:59:20;3.17;;;0.80;;
23306;SDS011;11822;52.470;10.688;2022-07-23T14:01:46;1.92;;;0.63;;
23306;SDS011;11822;52.470;10.688;2022-07-23T14:04:11;3.10;;;0.68;;
23306;SDS011;11822;52.470;10.688;2022-07-23T14:06:37;2.08;;;0.60;;
23306;SDS011;11822;52.470;10.688;2022-07-23T14:09:02;2.17;;;0.60;;
23306;SDS011;11822;52.470;10.688;2022-07-23T14:11:27;2.17;;;0.65;;
23306;SDS011;11822;52.470;10.688;2022-07-23T14:13:55;2.20;;;0.88;;
23306;SDS011;11822;52.470;10.688;2022-07-23T14:16:21;2.20;;;0.70;;
23306;SDS011;11822;52.470;10.688;2022-07-23T14:18:46;4.90;;;0.70;;
23306;SDS011;11822;52.470;10.688;2022-07-23T14:21:11;3.47;;;0.70;;
23306;SDS011;11822;52.470;10.688;2022-07-23T14:23:37;1.30;;;0.50;;
23306;SDS011;11822;52.470;10.688;2022-07-23T14:26:02;1.17;;;0.60;;
23306;SDS011;11822;52.470;10.688;2022-07-23T14:28:27;3.72;;;1.08;;
23306;SDS011;11822;52.470;10.688;2022-07-23T14:30:53;3.10;;;0.95;;
23306;SDS011;11822;52.470;10.688;2022-07-23T14:33:18;1.67;;;0.60;;
23306;SDS011;11822;52.470;10.688;2022-07-23T14:35:44;1.98;;;0.50;;
23306;SDS011;11822;52.470;10.688;2022-07-23T14:38:10;1.63;;;0.57;;
23306;SDS011;11822;52.470;10.688;2022-07-23T14:40:35;3.00;;;0.70;;
23306;SDS011;11822;52.470;10.688;2022-07-23T14:43:00;1.35;;;0.73;;
23306;SDS011;11822;52.470;10.688;2022-07-23T14:45:26;3.25;;;0.70;;
23306;SDS011;11822;52.470;10.688;2022-07-23T14:47:53;1.73;;;0.50;;
23306;SDS011;11822;52.470;10.688;2022-07-23T14:50:19;4.57;;;0.85;;
23306;SDS011;11822;52.470;10.688;2022-07-23T14:52:44;1.88;;;0.70;;
23306;SDS011;11822;52.470;10.688;2022-07-23T14:55:09;3.78;;;1.10;;
23306;SDS011;11822;52.470;10.688;2022-07-23T14:57:35;1.50;;;0.52;;
23306;SDS011;11822;52.470;10.688;2022-07-23T15:00:00;2.05;;;0.47;;
23306;SDS011;11822;52.470;10.688;2022-07-23T15:02:26;2.00;;;0.60;;
23306;SDS011;11822;52.470;10.688;2022-07-23T15:04:51;2.20;;;0.60;;
23306;SDS011;11822;52.470;10.688;2022-07-23T15:07:16;1.55;;;1.20;;
23306;SDS011;11822;52.470;10.688;2022-07-23T15:09:42;3.95;;;0.85;;
23306;SDS011;11822;52.470;10.688;2022-07-23T15:12:07;3.70;;;0.88;;
23306;SDS011;11822;52.470;10.688;2022-07-23T15:14:33;1.70;;;0.73;;
23306;SDS011;11822;52.470;10.688;2022-07-23T15:16:58;2.47;;;0.73;;
23306;SDS011;11822;52.470;10.688;2022-07-23T15:19:23;4.55;;;0.77;;
23306;SDS011;11822;52.470;10.688;2022-07-23T15:21:49;2.42;;;0.85;;
23306;SDS011;11822;52.470;10.688;2022-07-23T15:24:14;5.07;;;1.08;;
23306;SDS011;11822;52.470;10.688;2022-07-23T15:26:39;2.50;;;0.50;;
23306;SDS011;11822;52.470;10.688;2022-07-23T15:29:05;3.03;;;0.65;;
23306;SDS011;11822;52.470;10.688;2022-07-23T15:31:31;3.72;;;0.55;;
23306;SDS011;11822;52.470;10.688;2022-07-23T15:33:57;4.70;;;0.60;;
23306;SDS011;11822;52.470;10.688;2022-07-23T15:36:22;1.45;;;0.68;;